Time;durP1;ratioP1;P1;durP2;ratioP2;P2;SDS_P1;SDS_P2;PMS_P1;PMS_P2;Temp;Humidity;BMP_temperature;BMP_pressure;BME280_temperature;BME280_humidity;BME280_pressure;Samples;Min_cycle;Max_cycle;Signal;HPM_P1;HPM_P2
2022/06/17 00:02:06;;;;;;;2.83;2.40;;;;;;;17.76;nan;-24311.78;4985359;28;20227;-64
2022/06/17 00:04:31;;;;;;;3.17;2.33;;;;;;;18.31;nan;-24326.97;4976843;28;20197;-61
2022/06/17 00:07:02;;;;;;;2.53;2.33;;;;;;;18.37;nan;-24328.50;4978652;28;20533;-61
2022/06/17 00:09:30;;;;;;;3.17;2.60;;;;;;;18.67;nan;-24336.72;4977547;28;20237;-61
2022/06/17 00:11:56;;;;;;;3.38;2.65;;;;;;;18.47;nan;-24331.28;4983189;28;20208;-64
2022/06/17 00:14:25;;;;;;;3.63;2.47;;;;;;;18.26;nan;-24325.59;4984380;28;20654;-59
2022/06/17 00:16:51;;;;;;;3.85;2.78;;;;;;;18.33;nan;-24327.41;4983465;28;20181;-62
2022/06/17 00:19:18;;;;;;;2.92;2.58;;;;;;;18.26;nan;-24325.44;4984643;28;20197;-63
2022/06/17 00:21:48;;;;;;;3.85;2.75;;;;;;;17.37;nan;-24301.03;4984233;28;20205;-60
2022/06/17 00:24:24;;;;;;;5.00;3.20;;;;;;;18.25;nan;-24325.31;4984716;28;20660;-63
2022/06/17 00:26:51;;;;;;;5.03;3.17;;;;;;;18.21;nan;-24324.19;4979191;28;20218;-62
2022/06/17 00:29:20;;;;;;;3.83;3.10;;;;;;;17.89;nan;-24315.28;4982153;28;20188;-62
2022/06/17 00:31:45;;;;;;;5.72;3.20;;;;;;;17.89;nan;-24315.41;4978956;28;20184;-64
2022/06/17 00:34:11;;;;;;;4.05;2.88;;;;;;;17.82;nan;-24313.31;4980961;28;20569;-63
2022/06/17 00:36:38;;;;;;;4.63;3.13;;;;;;;18.08;nan;-24320.56;4989679;28;20213;-61
2022/06/17 00:39:20;;;;;;;4.10;2.97;;;;;;;18.04;nan;-24319.44;4989307;28;20180;-61
2022/06/17 00:41:50;;;;;;;4.63;2.95;;;;;;;17.88;nan;-24315.00;4983175;28;20201;-63
2022/06/17 00:44:18;;;;;;;4.40;3.10;;;;;;;18.12;nan;-24321.69;4986226;28;20192;-63
2022/06/17 00:46:51;;;;;;;6.20;2.92;;;;;;;18.00;nan;-24318.47;4983462;28;20180;-63
2022/06/17 00:49:24;;;;;;;3.20;2.78;;;;;;;17.83;nan;-24313.59;4987674;28;20239;-64
2022/06/17 00:52:03;;;;;;;4.60;3.10;;;;;;;17.52;nan;-24305.09;4982543;28;20246;-65
2022/06/17 00:54:43;;;;;;;5.72;3.85;;;;;;;17.52;nan;-24305.09;4980931;28;20169;-61
2022/06/17 00:57:29;;;;;;;5.15;3.70;;;;;;;17.67;nan;-24309.41;4979895;28;20188;-62
2022/06/17 01:00:20;;;;;;;4.53;3.53;;;;;;;17.76;nan;-24311.63;4987090;28;20185;-61
2022/06/17 01:02:53;;;;;;;6.63;4.30;;;;;;;17.37;nan;-24300.91;4983929;28;20224;-64
2022/06/17 01:05:25;;;;;;;4.82;3.97;;;;;;;17.01;nan;-24291.00;4987669;28;20340;-63
2022/06/17 01:08:02;;;;;;;6.57;4.68;;;;;;;17.45;nan;-24303.28;4986657;28;20177;-63
2022/06/17 01:10:30;;;;;;;5.60;4.10;;;;;;;16.35;nan;-24272.81;4986492;28;20228;-63
2022/06/17 01:12:55;;;;;;;6.05;4.35;;;;;;;17.41;nan;-24302.16;4987128;28;20224;-62
2022/06/17 01:15:23;;;;;;;7.20;4.30;;;;;;;17.28;nan;-24298.53;4987761;28;20612;-62
2022/06/17 01:17:49;;;;;;;6.30;4.65;;;;;;;17.17;nan;-24295.59;4986581;28;20178;-61
2022/06/17 01:20:16;;;;;;;6.03;4.47;;;;;;;16.12;nan;-24266.53;4987596;28;20623;-64
2022/06/17 01:22:44;;;;;;;4.75;3.70;;;;;;;16.65;nan;-24281.22;4984665;28;20263;-61
2022/06/17 01:25:21;;;;;;;4.22;3.30;;;;;;;17.00;nan;-24290.72;4980309;28;20212;-64
2022/06/17 01:27:49;;;;;;;5.10;3.78;;;;;;;16.87;nan;-24287.22;4984923;28;20192;-63
2022/06/17 01:30:37;;;;;;;6.78;4.70;;;;;;;17.34;nan;-24300.06;4987837;28;20275;-62
2022/06/17 01:33:19;;;;;;;6.95;4.25;;;;;;;17.03;nan;-24291.69;4980458;28;20723;-59
2022/06/17 01:35:53;;;;;;;6.38;4.28;;;;;;;17.12;nan;-24294.19;4983857;28;20683;-63
2022/06/17 01:38:21;;;;;;;7.72;4.95;;;;;;;17.13;nan;-24294.34;4984222;28;20649;-62
2022/06/17 01:40:46;;;;;;;7.03;4.40;;;;;;;17.15;nan;-24295.03;4985793;28;20200;-63
2022/06/17 01:43:15;;;;;;;6.78;4.60;;;;;;;17.38;nan;-24301.31;4987014;28;20575;-63
2022/06/17 01:45:47;;;;;;;6.18;4.47;;;;;;;17.12;nan;-24294.06;4985705;28;20235;-63
2022/06/17 01:48:17;;;;;;;7.63;4.75;;;;;;;17.30;nan;-24299.09;4979552;28;20247;-62
2022/06/17 01:50:44;;;;;;;7.82;4.82;;;;;;;16.92;nan;-24288.47;4985626;28;20184;-63
2022/06/17 01:53:14;;;;;;;6.80;4.97;;;;;;;17.23;nan;-24297.28;4988110;28;20651;-60
2022/06/17 01:55:43;;;;;;;6.75;4.88;;;;;;;16.99;nan;-24290.56;4979738;28;20680;-62
2022/06/17 01:58:21;;;;;;;7.68;4.90;;;;;;;17.33;nan;-24299.78;4979953;28;20255;-63
2022/06/17 02:00:47;;;;;;;8.75;5.47;;;;;;;16.99;nan;-24290.56;4981900;28;20670;-62
2022/06/17 02:03:20;;;;;;;8.13;4.90;;;;;;;17.03;nan;-24291.53;4979373;28;20644;-63
2022/06/17 02:05:55;;;;;;;6.35;4.95;;;;;;;17.12;nan;-24294.19;4981562;28;20666;-61
2022/06/17 02:08:21;;;;;;;7.03;4.93;;;;;;;17.10;nan;-24293.63;4987535;28;20274;-63
2022/06/17 02:10:49;;;;;;;7.20;5.35;;;;;;;17.19;nan;-24296.00;4982094;28;20240;-62
2022/06/17 02:13:15;;;;;;;7.50;5.47;;;;;;;17.38;nan;-24301.31;4978823;28;20678;-62
2022/06/17 02:15:42;;;;;;;9.27;5.13;;;;;;;17.38;nan;-24301.31;4981435;28;20208;-62
2022/06/17 02:18:14;;;;;;;7.20;5.10;;;;;;;17.53;nan;-24305.50;4979370;28;20192;-63
2022/06/17 02:20:40;;;;;;;6.55;5.15;;;;;;;17.24;nan;-24297.41;4985103;28;20189;-61
2022/06/17 02:23:06;;;;;;;8.10;5.55;;;;;;;17.55;nan;-24306.06;4987456;28;20215;-63
2022/06/17 02:25:39;;;;;;;7.63;5.28;;;;;;;17.12;nan;-24294.06;4984804;28;20208;-63
2022/06/17 02:28:07;;;;;;;7.78;5.55;;;;;;;17.28;nan;-24298.38;4986868;28;20660;-62
2022/06/17 02:30:33;;;;;;;7.78;5.95;;;;;;;17.48;nan;-24303.97;4985056;28;20670;-66
2022/06/17 02:33:02;;;;;;;7.63;6.00;;;;;;;17.09;nan;-24293.34;4985758;28;20189;-62
2022/06/17 02:35:37;;;;;;;8.93;6.00;;;;;;;17.07;nan;-24292.66;4980257;28;20182;-62
2022/06/17 02:38:04;;;;;;;7.40;5.85;;;;;;;16.99;nan;-24290.44;4980005;28;20177;-63
2022/06/17 02:40:31;;;;;;;9.95;5.90;;;;;;;17.47;nan;-24303.81;4979222;28;20670;-63
2022/06/17 02:43:00;;;;;;;8.30;5.63;;;;;;;17.42;nan;-24302.28;4980302;28;20266;-63
2022/06/17 02:45:30;;;;;;;8.85;5.88;;;;;;;17.03;nan;-24291.69;4981268;28;20208;-60
2022/06/17 02:47:55;;;;;;;7.85;5.75;;;;;;;17.09;nan;-24293.22;4988397;28;20632;-63
2022/06/17 02:50:24;;;;;;;9.50;6.22;;;;;;;17.40;nan;-24301.72;4978621;28;20276;-60
2022/06/17 02:52:51;;;;;;;9.77;5.85;;;;;;;17.49;nan;-24304.25;4980495;28;20514;-64
2022/06/17 02:55:34;;;;;;;8.77;5.80;;;;;;;17.70;nan;-24309.97;4978328;28;20196;-63
2022/06/17 02:58:29;;;;;;;7.20;5.45;;;;;;;18.07;nan;-24320.44;4980653;28;20190;-61
2022/06/17 03:00:57;;;;;;;7.70;5.53;;;;;;;18.42;nan;-24330.03;4973592;28;20200;-64
2022/06/17 03:03:24;;;;;;;9.88;5.88;;;;;;;18.63;nan;-24335.63;4978665;28;20264;-60
2022/06/17 03:05:50;;;;;;;8.77;5.38;;;;;;;19.52;nan;-24360.13;4980631;28;20188;-64
2022/06/17 03:08:25;;;;;;;7.78;5.80;;;;;;;19.95;nan;-24371.94;4978074;28;20193;-62
2022/06/17 03:10:57;;;;;;;5.97;4.60;;;;;;;20.50;nan;-24387.06;4983895;28;20248;-63
2022/06/17 03:13:32;;;;;;;8.30;4.72;;;;;;;20.92;nan;-24398.59;4978164;28;20177;-61
2022/06/17 03:16:03;;;;;;;8.00;5.20;;;;;;;21.37;nan;-24410.94;4985167;28;20204;-63
2022/06/17 03:18:29;;;;;;;6.97;4.82;;;;;;;22.16;nan;-24432.69;4989219;28;20606;-63
2022/06/17 03:20:55;;;;;;;6.53;5.07;;;;;;;21.89;nan;-24425.34;4979869;28;20181;-61
2022/06/17 03:23:48;;;;;;;9.23;4.65;;;;;;;23.06;nan;-24457.16;4978079;28;20512;-63
2022/06/17 03:26:18;;;;;;;9.20;5.55;;;;;;;23.39;nan;-24466.28;4977651;28;20731;-62
2022/06/17 03:28:51;;;;;;;6.85;5.05;;;;;;;23.92;nan;-24480.63;4975568;28;20185;-61
2022/06/17 03:31:22;;;;;;;6.63;5.05;;;;;;;24.68;nan;-24501.47;4974954;28;20212;-63
2022/06/17 03:34:31;;;;;;;5.72;4.60;;;;;;;25.12;nan;-24513.44;4975487;28;20216;-61
2022/06/17 03:37:22;;;;;;;6.63;5.03;;;;;;;25.70;nan;-24529.13;4918231;29;20753;-63
2022/06/17 03:40:16;;;;;;;6.45;4.90;;;;;;;26.26;nan;-24544.38;4916103;29;20574;-65
2022/06/17 03:43:01;;;;;;;6.88;5.05;;;;;;;26.78;nan;-24558.66;4966874;28;20308;-63
2022/06/17 03:45:43;;;;;;;8.23;5.40;;;;;;;27.31;nan;-24572.78;4975127;28;20219;-62
2022/06/17 03:48:26;;;;;;;7.53;4.82;;;;;;;27.77;nan;-24585.41;4974905;28;20220;-62
2022/06/17 03:50:52;;;;;;;10.68;5.18;;;;;;;28.20;nan;-24596.91;4974595;28;20272;-62
2022/06/17 03:53:31;;;;;;;7.70;5.03;;;;;;;28.91;nan;-24616.19;4975932;28;20284;-62
2022/06/17 03:56:06;;;;;;;6.82;5.10;;;;;;;28.71;nan;-24610.72;4974973;28;20189;-62
2022/06/17 03:58:32;;;;;;;6.88;5.10;;;;;;;29.53;nan;-24633.00;4975537;28;20185;-64
2022/06/17 04:01:15;;;;;;;10.52;5.45;;;;;;;30.08;nan;-24647.88;4972812;28;20191;-63
2022/06/17 04:03:44;;;;;;;6.97;5.20;;;;;;;30.15;nan;-24649.63;4974602;28;20200;-66
2022/06/17 04:06:25;;;;;;;6.50;5.10;;;;;;;30.25;nan;-24652.50;4974385;28;20660;-63
2022/06/17 04:08:53;;;;;;;8.85;4.85;;;;;;;30.78;nan;-24666.53;4974687;28;20208;-63
2022/06/17 04:11:21;;;;;;;9.52;4.80;;;;;;;31.07;nan;-24674.44;4973216;28;20985;-62
2022/06/17 04:13:46;;;;;;;6.50;4.53;;;;;;;31.30;nan;-24680.56;4974353;28;20193;-63
2022/06/17 04:16:31;;;;;;;5.63;4.50;;;;;;;31.96;nan;-24698.34;4974332;28;20212;-61
2022/06/17 04:19:15;;;;;;;6.60;4.50;;;;;;;32.50;nan;-24712.75;4975411;28;20318;-61
2022/06/17 04:21:41;;;;;;;5.63;4.82;;;;;;;32.32;nan;-24708.13;4971982;28;20714;-63
2022/06/17 04:24:12;;;;;;;7.38;4.57;;;;;;;32.31;nan;-24707.72;4972449;28;20196;-63
2022/06/17 04:26:39;;;;;;;6.45;4.38;;;;;;;31.91;nan;-24697.00;4972156;28;20255;-65
2022/06/17 04:29:09;;;;;;;5.85;4.20;;;;;;;31.88;nan;-24696.19;4974108;28;20224;-63
2022/06/17 04:31:35;;;;;;;6.30;4.20;;;;;;;32.16;nan;-24703.78;4973091;28;20681;-64
2022/06/17 04:34:10;;;;;;;4.38;3.70;;;;;;;31.96;nan;-24698.50;4973029;28;20177;-61
2022/06/17 04:37:02;;;;;;;6.45;3.67;;;;;;;32.22;nan;-24705.41;4985254;28;20667;-61
2022/06/17 04:39:38;;;;;;;6.40;4.72;;;;;;;32.17;nan;-24704.06;4974472;28;20177;-63
2022/06/17 04:42:13;;;;;;;8.20;4.45;;;;;;;31.97;nan;-24698.63;4979136;28;20212;-62
2022/06/17 04:44:40;;;;;;;5.15;3.90;;;;;;;31.28;nan;-24680.13;4978989;28;20185;-64
2022/06/17 04:47:08;;;;;;;7.15;4.03;;;;;;;30.81;nan;-24667.34;4980815;28;20180;-64
2022/06/17 04:49:38;;;;;;;6.80;4.25;;;;;;;30.35;nan;-24655.09;4982441;28;20184;-64
2022/06/17 04:52:11;;;;;;;9.05;3.45;;;;;;;30.49;nan;-24658.78;4981047;28;20658;-63
2022/06/17 04:54:39;;;;;;;6.20;3.88;;;;;;;30.58;nan;-24661.34;4980799;28;20185;-62
2022/06/17 04:57:05;;;;;;;9.52;4.70;;;;;;;30.52;nan;-24659.72;4979768;28;20712;-61
2022/06/17 04:59:35;;;;;;;6.57;4.35;;;;;;;30.70;nan;-24664.63;4981680;28;20259;-63
2022/06/17 05:02:03;;;;;;;6.80;4.13;;;;;;;30.30;nan;-24653.72;4977854;28;20208;-63
2022/06/17 05:04:29;;;;;;;5.43;3.88;;;;;;;30.06;nan;-24647.31;4981388;28;20173;-63
2022/06/17 05:06:54;;;;;;;7.13;4.20;;;;;;;30.20;nan;-24651.13;4977863;28;20179;-63
2022/06/17 05:09:28;;;;;;;6.13;4.25;;;;;;;29.41;nan;-24629.84;4981349;28;20196;-61
2022/06/17 05:12:08;;;;;;;5.80;4.57;;;;;;;29.23;nan;-24624.94;4977132;28;20193;-64
2022/06/17 05:14:34;;;;;;;6.85;4.55;;;;;;;29.16;nan;-24622.88;4979053;28;20268;-63
2022/06/17 05:16:59;;;;;;;5.85;4.53;;;;;;;28.83;nan;-24614.00;4979943;28;20629;-61
2022/06/17 05:19:25;;;;;;;6.95;4.22;;;;;;;28.37;nan;-24601.69;4980511;28;20255;-62
2022/06/17 05:21:50;;;;;;;5.28;4.13;;;;;;;28.52;nan;-24605.78;4981702;28;20193;-62
2022/06/17 05:24:16;;;;;;;5.70;3.92;;;;;;;28.20;nan;-24596.91;4983176;28;20474;-63
2022/06/17 05:26:41;;;;;;;6.22;3.80;;;;;;;28.49;nan;-24604.84;4981498;28;20185;-64
2022/06/17 05:29:08;;;;;;;6.47;4.03;;;;;;;28.51;nan;-24605.38;4981177;28;20215;-64
2022/06/17 05:31:35;;;;;;;5.90;4.00;;;;;;;28.31;nan;-24600.06;4982808;28;20640;-62
2022/06/17 05:34:02;;;;;;;6.18;5.00;;;;;;;28.32;nan;-24600.19;4982487;28;20597;-61
2022/06/17 05:36:27;;;;;;;6.80;4.88;;;;;;;27.75;nan;-24584.84;4981655;28;20585;-64
2022/06/17 05:38:53;;;;;;;7.72;4.97;;;;;;;27.38;nan;-24574.84;4984776;28;20259;-63
2022/06/17 05:41:22;;;;;;;6.47;4.35;;;;;;;27.86;nan;-24587.88;4981302;28;20196;-62
2022/06/17 05:43:49;;;;;;;5.68;4.10;;;;;;;26.78;nan;-24558.53;4981455;28;20184;-64
2022/06/17 05:46:16;;;;;;;6.13;4.15;;;;;;;25.81;nan;-24532.16;4980825;28;20189;-64
2022/06/17 05:48:41;;;;;;;5.32;3.95;;;;;;;25.49;nan;-24523.47;4982485;28;20186;-62
2022/06/17 05:51:10;;;;;;;5.55;4.00;;;;;;;25.62;nan;-24526.94;4979498;28;20256;-62
2022/06/17 05:53:35;;;;;;;6.78;4.25;;;;;;;25.27;nan;-24517.56;4978093;28;20269;-62
2022/06/17 05:56:01;;;;;;;5.80;4.22;;;;;;;25.33;nan;-24519.22;4982315;28;20183;-63
2022/06/17 05:58:26;;;;;;;6.18;4.32;;;;;;;24.73;nan;-24502.69;4982175;28;20193;-62
2022/06/17 06:00:52;;;;;;;6.43;4.13;;;;;;;24.91;nan;-24507.78;4986144;28;20269;-63
2022/06/17 06:03:20;;;;;;;6.50;4.70;;;;;;;24.59;nan;-24499.13;4984930;28;20204;-64
2022/06/17 06:05:46;;;;;;;6.90;4.35;;;;;;;24.27;nan;-24490.28;4981270;28;20176;-62
2022/06/17 06:08:11;;;;;;;8.73;4.43;;;;;;;24.49;nan;-24496.22;4980928;28;20243;-63
2022/06/17 06:10:37;;;;;;;6.32;4.70;;;;;;;24.35;nan;-24492.50;4982773;28;20216;-63
2022/06/17 06:13:04;;;;;;;6.55;4.63;;;;;;;24.00;nan;-24482.97;4979644;28;20193;-62
2022/06/17 06:15:38;;;;;;;6.00;4.53;;;;;;;23.73;nan;-24475.53;4982469;28;20189;-65
2022/06/17 06:18:05;;;;;;;6.22;4.60;;;;;;;23.91;nan;-24480.34;4980194;28;20191;-62
2022/06/17 06:20:30;;;;;;;6.63;4.68;;;;;;;23.81;nan;-24477.59;4982234;28;20200;-64
2022/06/17 06:22:56;;;;;;;6.95;4.32;;;;;;;24.25;nan;-24489.75;4980298;28;20209;-61
2022/06/17 06:25:23;;;;;;;6.80;4.53;;;;;;;24.02;nan;-24483.41;4983295;28;20193;-61
2022/06/17 06:27:49;;;;;;;7.57;4.40;;;;;;;23.97;nan;-24482.16;4985736;28;20567;-65
2022/06/17 06:30:21;;;;;;;5.57;4.07;;;;;;;23.65;nan;-24473.47;4979861;28;20207;-63
2022/06/17 06:32:53;;;;;;;6.28;4.40;;;;;;;24.00;nan;-24482.84;4984324;28;20200;-65
2022/06/17 06:35:22;;;;;;;7.22;4.40;;;;;;;24.13;nan;-24486.44;4980264;28;20644;-62
2022/06/17 06:37:48;;;;;;;6.70;4.78;;;;;;;24.05;nan;-24484.34;4980867;28;20200;-64
2022/06/17 06:40:14;;;;;;;9.68;5.00;;;;;;;23.92;nan;-24480.63;4981819;28;20186;-63
2022/06/17 06:42:39;;;;;;;8.43;4.95;;;;;;;23.37;nan;-24465.59;4983667;28;20228;-64
2022/06/17 06:45:06;;;;;;;7.60;5.10;;;;;;;23.97;nan;-24482.00;4985033;28;20202;-62
2022/06/17 06:47:32;;;;;;;6.85;4.70;;;;;;;24.01;nan;-24483.13;4983717;28;20219;-65
2022/06/17 06:49:57;;;;;;;5.82;4.47;;;;;;;23.93;nan;-24480.91;4985011;28;20648;-64
2022/06/17 06:52:23;;;;;;;7.35;4.43;;;;;;;24.60;nan;-24499.38;4979412;28;20208;-64
2022/06/17 06:54:50;;;;;;;6.25;4.47;;;;;;;24.45;nan;-24495.25;4980816;28;20192;-64
2022/06/17 06:57:16;;;;;;;6.40;4.60;;;;;;;24.56;nan;-24498.16;4981775;28;20187;-62
2022/06/17 06:59:42;;;;;;;6.93;4.35;;;;;;;24.91;nan;-24507.66;4979602;28;20262;-61
2022/06/17 07:02:08;;;;;;;5.68;4.20;;;;;;;24.85;nan;-24506.00;4980280;28;20791;-63
2022/06/17 07:04:34;;;;;;;4.53;3.40;;;;;;;24.89;nan;-24507.25;4984416;28;20192;-63
2022/06/17 07:06:59;;;;;;;4.50;3.28;;;;;;;24.91;nan;-24507.66;4981239;28;20275;-64
2022/06/17 07:09:25;;;;;;;4.20;3.28;;;;;;;24.66;nan;-24500.91;4984272;28;20189;-64
2022/06/17 07:11:51;;;;;;;4.55;3.67;;;;;;;24.70;nan;-24502.00;4983227;28;20177;-64
2022/06/17 07:14:16;;;;;;;4.25;3.25;;;;;;;24.47;nan;-24495.81;4977387;28;20247;-63
2022/06/17 07:16:42;;;;;;;4.50;3.33;;;;;;;24.56;nan;-24498.16;4979578;28;20196;-64
2022/06/17 07:19:10;;;;;;;4.30;3.35;;;;;;;24.72;nan;-24502.56;4990492;28;20169;-64
2022/06/17 07:21:35;;;;;;;3.88;3.35;;;;;;;24.93;nan;-24508.22;4983208;28;20695;-62
2022/06/17 07:24:01;;;;;;;4.25;3.35;;;;;;;24.95;nan;-24508.75;4976305;28;20268;-65
2022/06/17 07:26:27;;;;;;;5.03;3.70;;;;;;;24.67;nan;-24501.03;4980798;28;20235;-63
2022/06/17 07:28:54;;;;;;;5.18;3.50;;;;;;;24.93;nan;-24508.22;4979282;28;20181;-63
2022/06/17 07:31:22;;;;;;;5.03;3.17;;;;;;;25.34;nan;-24519.50;4980169;28;20188;-63
2022/06/17 07:33:48;;;;;;;6.32;3.50;;;;;;;25.37;nan;-24520.19;4980293;28;20272;-63
2022/06/17 07:41:50;;;;;;;6.15;3.83;;;;;;;25.22;nan;-24516.06;4978973;28;20226;-64
2022/06/17 07:44:17;;;;;;;4.35;3.40;;;;;;;25.28;nan;-24517.72;4980803;28;20181;-64
2022/06/17 07:46:43;;;;;;;5.60;3.60;;;;;;;25.70;nan;-24529.13;4980192;28;20188;-62
2022/06/17 07:49:09;;;;;;;5.95;3.72;;;;;;;25.81;nan;-24532.28;4980068;28;20191;-64
2022/06/17 07:51:35;;;;;;;5.05;3.45;;;;;;;25.15;nan;-24514.28;4980358;28;20181;-62
2022/06/17 07:54:01;;;;;;;4.85;3.67;;;;;;;25.37;nan;-24520.31;4980726;28;20689;-62
2022/06/17 07:56:26;;;;;;;5.82;4.05;;;;;;;25.61;nan;-24526.66;4980309;28;20268;-63
2022/06/17 07:58:52;;;;;;;5.63;3.70;;;;;;;25.86;nan;-24533.53;4978624;28;20636;-62
2022/06/17 08:01:18;;;;;;;5.30;3.72;;;;;;;25.61;nan;-24526.66;4980961;28;20764;-60
2022/06/17 08:03:44;;;;;;;5.35;3.65;;;;;;;25.39;nan;-24520.72;4978946;28;20181;-62
2022/06/17 08:06:13;;;;;;;4.70;3.60;;;;;;;25.96;nan;-24536.28;4978477;28;20187;-64
2022/06/17 08:08:40;;;;;;;5.70;3.85;;;;;;;25.96;nan;-24536.28;4981116;28;20195;-65
2022/06/17 08:11:07;;;;;;;5.53;3.78;;;;;;;25.68;nan;-24528.72;4982390;28;20707;-63
2022/06/17 08:13:32;;;;;;;4.88;4.18;;;;;;;25.33;nan;-24519.09;4982093;28;20208;-64
2022/06/17 08:16:00;;;;;;;5.90;4.38;;;;;;;26.02;nan;-24537.94;4978465;28;20665;-63
2022/06/17 08:18:27;;;;;;;5.07;4.05;;;;;;;26.23;nan;-24543.56;4981538;28;20177;-65
2022/06/17 08:20:52;;;;;;;6.10;4.50;;;;;;;26.20;nan;-24542.88;4979696;28;20185;-64
2022/06/17 08:23:19;;;;;;;10.20;5.97;;;;;;;26.16;nan;-24541.78;4979784;28;20176;-64
2022/06/17 08:25:45;;;;;;;5.53;4.35;;;;;;;25.39;nan;-24520.72;4978812;28;20184;-62
2022/06/17 08:28:14;;;;;;;5.53;4.53;;;;;;;25.68;nan;-24528.72;4976741;28;20194;-62
2022/06/17 08:30:49;;;;;;;5.55;4.45;;;;;;;26.01;nan;-24537.50;4978702;28;20180;-63
2022/06/17 08:33:15;;;;;;;5.68;4.63;;;;;;;26.36;nan;-24547.13;4978853;28;20188;-60
2022/06/17 08:35:48;;;;;;;8.77;5.10;;;;;;;26.11;nan;-24540.25;4980236;28;20645;-62
2022/06/17 08:38:21;;;;;;;7.13;5.13;;;;;;;26.07;nan;-24539.16;4981411;28;20181;-67
2022/06/17 08:40:52;;;;;;;6.28;5.15;;;;;;;26.22;nan;-24543.28;4980664;28;20185;-63
2022/06/17 08:43:23;;;;;;;6.82;4.95;;;;;;;25.71;nan;-24529.41;4980147;28;20188;-64
2022/06/17 08:45:51;;;;;;;6.90;5.15;;;;;;;26.01;nan;-24537.50;4978829;28;20188;-61
2022/06/17 08:48:17;;;;;;;8.77;5.93;;;;;;;25.33;nan;-24519.09;4978514;28;20537;-64
2022/06/17 08:50:56;;;;;;;7.90;5.03;;;;;;;25.44;nan;-24522.25;4981301;28;20188;-64
2022/06/17 08:53:37;;;;;;;8.85;5.72;;;;;;;25.71;nan;-24529.53;4977387;28;20279;-61
2022/06/17 08:56:22;;;;;;;7.10;5.55;;;;;;;26.23;nan;-24543.69;4983567;28;20192;-65
2022/06/17 08:58:58;;;;;;;8.20;4.50;;;;;;;26.59;nan;-24553.44;4975948;28;20191;-61
2022/06/17 09:01:33;;;;;;;5.68;4.78;;;;;;;26.21;nan;-24543.16;4980478;28;20638;-62
2022/06/17 09:04:09;;;;;;;6.45;5.13;;;;;;;25.80;nan;-24531.88;4985052;28;20203;-62
2022/06/17 09:06:55;;;;;;;6.55;5.13;;;;;;;26.38;nan;-24547.81;4982766;28;20185;-63
2022/06/17 09:09:42;;;;;;;7.93;5.25;;;;;;;27.04;nan;-24565.66;4981308;28;20189;-63
2022/06/17 09:12:20;;;;;;;8.65;5.47;;;;;;;27.06;nan;-24566.22;4982338;28;20472;-63
2022/06/17 09:15:06;;;;;;;7.10;5.43;;;;;;;26.66;nan;-24555.38;4981401;28;20640;-63
2022/06/17 09:18:02;;;;;;;8.27;5.25;;;;;;;25.96;nan;-24536.28;4983724;28;20196;-62
2022/06/17 09:20:38;;;;;;;7.70;5.82;;;;;;;25.88;nan;-24534.06;4975012;28;20224;-62
2022/06/17 09:23:06;;;;;;;6.82;5.38;;;;;;;25.83;nan;-24532.69;4982547;28;20207;-64
2022/06/17 09:25:43;;;;;;;7.40;5.75;;;;;;;26.16;nan;-24541.63;4982859;28;20716;-61
2022/06/17 09:28:26;;;;;;;7.45;5.20;;;;;;;26.12;nan;-24540.69;4982302;28;20192;-62
2022/06/17 09:31:11;;;;;;;6.32;5.30;;;;;;;26.66;nan;-24555.38;4982104;28;20192;-63
2022/06/17 09:33:49;;;;;;;6.63;5.28;;;;;;;26.83;nan;-24559.91;4989008;28;20822;-61
2022/06/17 09:36:17;;;;;;;8.13;5.85;;;;;;;27.47;nan;-24577.31;4985094;28;20266;-62
2022/06/17 09:38:53;;;;;;;6.30;5.38;;;;;;;27.68;nan;-24583.06;4979637;28;20497;-63
2022/06/17 09:41:35;;;;;;;6.60;5.55;;;;;;;27.84;nan;-24587.31;4979876;28;20196;-61
2022/06/17 09:44:16;;;;;;;6.68;5.32;;;;;;;27.73;nan;-24584.31;4980512;28;20193;-62
2022/06/17 09:46:51;;;;;;;6.05;5.10;;;;;;;28.06;nan;-24593.22;4986415;28;20220;-61
2022/06/17 09:49:47;;;;;;;6.75;5.45;;;;;;;27.96;nan;-24590.47;4984534;28;20632;-61
2022/06/17 09:52:54;;;;;;;7.00;5.35;;;;;;;27.91;nan;-24589.09;4983351;28;20209;-64
2022/06/17 09:55:25;;;;;;;7.05;5.82;;;;;;;27.67;nan;-24582.66;4987555;28;20228;-63
2022/06/17 09:58:02;;;;;;;9.82;5.93;;;;;;;27.81;nan;-24586.34;4985659;28;20300;-62
2022/06/17 10:00:38;;;;;;;6.75;5.57;;;;;;;27.69;nan;-24583.22;4982399;28;20180;-64
2022/06/17 10:03:23;;;;;;;7.28;5.72;;;;;;;28.02;nan;-24592.13;4985968;28;20213;-62
2022/06/17 10:06:10;;;;;;;8.57;5.88;;;;;;;27.97;nan;-24590.75;4983972;28;20184;-63
2022/06/17 10:08:41;;;;;;;7.78;6.38;;;;;;;28.22;nan;-24597.44;4983880;28;20199;-62
2022/06/17 10:11:10;;;;;;;7.28;5.57;;;;;;;28.09;nan;-24594.03;4986086;28;20217;-63
2022/06/17 10:13:42;;;;;;;7.88;5.90;;;;;;;27.91;nan;-24589.09;4985721;28;20259;-62
2022/06/17 10:19:32;;;;;;;7.25;5.60;;;;;;;28.34;nan;-24600.75;4986089;28;20192;-65
2022/06/17 10:22:15;;;;;;;6.53;5.43;;;;;;;28.59;nan;-24607.44;4987173;28;20197;-64
2022/06/17 10:25:08;;;;;;;6.22;5.03;;;;;;;28.84;nan;-24614.41;4979633;28;20255;-61
2022/06/17 10:27:53;;;;;;;7.70;5.88;;;;;;;28.86;nan;-24614.97;4986204;28;20546;-61
2022/06/17 10:30:33;;;;;;;7.75;5.80;;;;;;;29.26;nan;-24625.75;4986797;28;20196;-61
2022/06/17 10:32:59;;;;;;;6.30;5.53;;;;;;;28.99;nan;-24618.50;4985881;28;20188;-65
2022/06/17 10:35:33;;;;;;;7.32;5.50;;;;;;;28.99;nan;-24618.38;4982216;28;20264;-63
2022/06/17 10:38:02;;;;;;;7.63;5.82;;;;;;;29.25;nan;-24625.47;4990172;28;20184;-62
2022/06/17 10:40:30;;;;;;;7.47;5.35;;;;;;;29.57;nan;-24634.09;4986961;28;20195;-61
2022/06/17 10:43:02;;;;;;;7.57;5.82;;;;;;;29.90;nan;-24642.97;4980420;28;20236;-62
2022/06/17 10:45:28;;;;;;;8.30;6.03;;;;;;;29.16;nan;-24622.88;4990741;28;20179;-66
2022/06/17 10:48:34;;;;;;;7.25;5.72;;;;;;;29.16;nan;-24623.03;4984993;28;20260;-61
2022/06/17 10:51:02;;;;;;;7.45;5.85;;;;;;;29.35;nan;-24628.06;4945396;28;20667;-64
2022/06/17 10:53:51;;;;;;;7.30;6.10;;;;;;;29.68;nan;-24636.94;4983321;28;20177;-62
2022/06/17 10:56:25;;;;;;;7.38;5.80;;;;;;;29.30;nan;-24626.84;4978618;28;20214;-65
2022/06/17 10:59:08;;;;;;;7.45;5.80;;;;;;;29.60;nan;-24634.91;4984694;28;20186;-62
2022/06/17 11:01:53;;;;;;;7.15;5.80;;;;;;;29.87;nan;-24642.13;4977827;28;20204;-63
2022/06/17 11:04:25;;;;;;;6.80;5.60;;;;;;;29.03;nan;-24619.47;4981436;28;20278;-60
2022/06/17 11:07:06;;;;;;;6.72;5.65;;;;;;;28.84;nan;-24614.28;4981609;28;20238;-61
2022/06/17 11:09:38;;;;;;;8.38;5.95;;;;;;;28.85;nan;-24614.69;4980030;28;20243;-64
2022/06/17 11:12:14;;;;;;;8.30;6.05;;;;;;;28.83;nan;-24614.13;4983715;28;20263;-64
2022/06/17 11:14:45;;;;;;;8.77;5.90;;;;;;;28.98;nan;-24618.09;4978993;28;20270;-61
2022/06/17 11:17:31;;;;;;;6.90;5.53;;;;;;;29.29;nan;-24626.44;4985116;28;20185;-64
2022/06/17 11:20:03;;;;;;;6.45;5.32;;;;;;;29.17;nan;-24623.16;4979238;28;20205;-64
2022/06/17 11:22:36;;;;;;;8.55;5.40;;;;;;;28.91;nan;-24616.19;4980058;28;20299;-63
2022/06/17 11:25:30;;;;;;;9.80;5.40;;;;;;;28.80;nan;-24613.31;4978700;28;20203;-63
2022/06/17 11:28:11;;;;;;;10.70;5.40;;;;;;;27.96;nan;-24590.47;4974185;28;20188;-65
2022/06/17 11:30:50;;;;;;;7.47;5.07;;;;;;;28.40;nan;-24602.38;4981460;28;20267;-64
2022/06/17 11:33:35;;;;;;;8.13;5.75;;;;;;;28.47;nan;-24604.44;4981798;28;20185;-64
2022/06/17 11:36:15;;;;;;;6.53;5.15;;;;;;;28.84;nan;-24614.41;4982245;28;20271;-62
2022/06/17 11:38:40;;;;;;;6.45;4.88;;;;;;;29.11;nan;-24621.66;4983587;28;20274;-63
2022/06/17 11:41:07;;;;;;;7.00;4.95;;;;;;;28.87;nan;-24615.22;4984380;28;20275;-64
2022/06/17 11:43:43;;;;;;;6.68;5.30;;;;;;;29.24;nan;-24625.19;4975652;28;20737;-65
2022/06/17 11:46:15;;;;;;;7.38;5.22;;;;;;;29.47;nan;-24631.34;4979632;28;20572;-64
2022/06/17 11:48:44;;;;;;;6.07;5.00;;;;;;;29.51;nan;-24632.44;4980653;28;20173;-65
2022/06/17 11:51:12;;;;;;;7.15;5.13;;;;;;;29.56;nan;-24633.81;4977912;28;20185;-63
2022/06/17 11:53:53;;;;;;;7.93;5.28;;;;;;;29.11;nan;-24621.66;4982337;28;20184;-62
2022/06/17 11:56:39;;;;;;;6.30;5.03;;;;;;;29.52;nan;-24632.59;4977698;28;20183;-64
2022/06/17 11:59:10;;;;;;;6.85;5.05;;;;;;;29.64;nan;-24635.84;4979409;28;20637;-62
2022/06/17 12:01:36;;;;;;;6.93;5.25;;;;;;;29.61;nan;-24635.19;4985406;28;20303;-65
2022/06/17 12:04:02;;;;;;;10.23;6.43;;;;;;;29.75;nan;-24639.00;4982117;28;20183;-63
2022/06/17 12:06:31;;;;;;;5.95;4.88;;;;;;;30.01;nan;-24645.81;4988571;28;20195;-64
2022/06/17 12:09:10;;;;;;;6.53;5.15;;;;;;;29.98;nan;-24645.13;4981679;28;20264;-64
2022/06/17 12:11:45;;;;;;;10.38;5.28;;;;;;;29.97;nan;-24644.88;4982727;28;20690;-64
2022/06/17 12:14:20;;;;;;;7.10;4.82;;;;;;;29.82;nan;-24640.91;4983223;28;20187;-64